• Join FlightAware (Why Join?)
  • Login
  • US Flag 
01:21AM EDT


 

Airport Tracker/Info


-or-


 

Live Flight TrackerFlight Track Log ✈ ASQ5958 ✈ 11-Apr-2013 ✈ KPIT - KDEN

Flight Track Log - Related Links

Times and Time Zones

All times are in EDT time to prevent confusion due to time zone crossing. See the ASQ5958 flight status page for this flight to view local times or setup timezone preferences in your user account.

Time Position Orientation Groundspeed Altitude Reporting Facility
EDT Latitude Longitude Course Direction KTS MPH feet Rate Location/Type
07:35PM 40.5131 -80.3483 288° West 212 244 3,400  Level Cleveland Center
07:36PM 40.5319 -80.4356 286° West 269 310 5,200 2,340 Climbing Cleveland Center
07:37PM 40.5528 -80.5256 287° West 280 322 8,100 2,760 Climbing Cleveland Center
07:38PM 40.5736 -80.6214 286° West 273 314 10,800 1,800 Climbing Cleveland Center
07:39PM 40.5967 -80.7336 285° West 287 330 11,800 1,140 Climbing Cleveland Center
07:40PM 40.6478 -80.9910 288° West  Level FlightAware Approximate
07:40PM 40.6233 -80.8539 286° West 323 372 13,100  Level Cleveland Center
07:41PM 40.6503 -80.9828 285° West 345 397 14,500 1,500 Climbing Cleveland Center
07:42PM 40.6747 -81.1169 284° West 378 435 16,100 1,560 Climbing Cleveland Center
07:43PM 40.7031 -81.2458 286° West 373 429 17,700 1,680 Climbing Cleveland Center
07:44PM 40.7294 -81.3750 285° West 373 429 19,500 1,680 Climbing Cleveland Center
07:45PM 40.7786 -81.4961 298° West 373 429 21,100 1,560 Climbing Cleveland Center
07:46PM 40.8317 -81.6286 298° West 373 429 22,700 1,560 Climbing Cleveland Center
07:47PM 40.8469 -81.7578 279° West 360 414 24,300 1,560 Climbing Cleveland Center
07:48PM 40.8644 -81.8844 280° West 355 409 25,900 1,560 Climbing Cleveland Center
07:49PM 40.8794 -82.0083 279° West 355 409 27,500 1,560 Climbing Cleveland Center
07:50PM 40.8967 -82.1269 281° West 355 409 29,100 1,500 Climbing Cleveland Center
07:51PM 40.9097 -82.2481 278° West 339 390 30,600 1,200 Climbing Cleveland Center
07:52PM 40.9247 -82.3528 281° West 334 384 31,600 1,080 Climbing Cleveland Center
07:53PM 40.9397 -82.4686 280° West 334 384 32,800 960 Climbing Cleveland Center
07:54PM 40.9564 -82.5903 280° West 334 384 33,600 600 Climbing Cleveland Center
07:55PM 40.9728 -82.7144 280° West 334 384 34,000 180 Climbing Cleveland Center
07:56PM 40.9889 -82.8497 279° West 356 410 34,000 420 Level Cleveland Center
07:57PM 41.0067 -83.0017 279° West 378 435 34,900 960 Climbing Cleveland Center
07:58PM 41.0244 -83.1372 280° West 378 435 36,000 540 Climbing Cleveland Center
07:59PM 41.0444 -83.2675 282° West 366 421 36,000  Level Cleveland Center
08:00PM 41.0619 -83.4142 279° West 386 444 36,000  Level Cleveland Center
08:01PM 41.0792 -83.5528 279° West 396 456 36,000  Level Cleveland Center
08:02PM 41.0900 -83.6908 276° West 389 448 36,000  Level Cleveland Center
08:03PM 41.1069 -83.8297 279° West 389 448 36,000  Level Cleveland Center
08:04PM 41.1261 -83.9656 281° West 389 448 36,000  Level Cleveland Center
08:05PM 41.1550 -84.2069 279° West 381 438 36,000  Level Chicago Center
08:06PM 41.1703 -84.3439 278° West 378 435 36,000  Level Chicago Center
08:07PM 41.1853 -84.4814 278° West 378 435 36,000  Level Chicago Center
08:09PM 41.2003 -84.6189 278° West 377 434 36,000  Level Chicago Center
08:10PM 41.2153 -84.7558 278° West 376 433 36,000  Level Chicago Center
08:11PM 41.2297 -84.8931 278° West 377 434 36,000  Level Chicago Center
08:12PM 41.2461 -85.0581 278° West 375 432 36,000  Level Chicago Center
08:13PM 41.2611 -85.1961 278° West 375 432 36,000  Level Chicago Center
08:14PM 41.2761 -85.3333 278° West 375 432 36,000  Level Chicago Center
08:15PM 41.2892 -85.4731 277° West 377 434 36,000  Level Chicago Center
08:16PM 41.3044 -85.6133 278° West 381 438 36,000  Level Chicago Center
08:17PM 41.3183 -85.7522 278° West 379 436 36,000  Level Chicago Center
08:18PM 41.3319 -85.8911 277° West 378 435 36,000  Level Chicago Center
08:19PM 41.3478 -86.0575 277° West 378 435 36,000  Level Chicago Center
08:20PM 41.3619 -86.1967 278° West 379 436 36,000  Level Chicago Center
08:21PM 41.3750 -86.3358 277° West 378 435 36,000  Level Chicago Center
08:22PM 41.3886 -86.4761 277° West 381 438 36,000  Level Chicago Center
08:23PM 41.4017 -86.6161 277° West 382 440 36,000  Level Chicago Center
08:24PM 41.4158 -86.7783 277° West 383 441 36,000  Level Chicago Center
08:25PM 41.4289 -86.9181 277° West 382 440 36,000  Level Chicago Center
08:26PM 41.4411 -87.0606 277° West 388 447 36,000  Level Chicago Center
08:27PM 41.4539 -87.2008 277° West 383 441 36,000 240 Level Chicago Center
08:28PM 41.4667 -87.3411 277° West 384 442 36,600 480 Climbing Chicago Center
08:29PM 41.4800 -87.5006 276° West 366 421 37,000 180 Climbing Chicago Center
08:30PM 41.4911 -87.6328 276° West 362 417 37,000  Level Chicago Center
08:31PM 41.5022 -87.7681 276° West 369 425 37,000  Level Chicago Center
08:32PM 41.5128 -87.9067 276° West 379 436 37,000  Level Chicago Center
08:33PM 41.5247 -88.0550 276° West 389 448 37,000  Level Chicago Center
08:34PM 41.5378 -88.2139 276° West 392 451 37,000  Level Chicago Center
08:35PM 41.5475 -88.3583 275° West 396 456 37,000  Level Chicago Center
08:36PM 41.5472 -88.4947 270° West 376 433 37,000 -60 Level Chicago Center
08:37PM 41.5472 -88.6606 270° West 376 433 36,900 -540 Descending Chicago Center
08:39PM 41.5483 -88.8011 271° West 380 437 36,000 -480 Descending Chicago Center
08:40PM 41.5478 -88.9447 270° West 390 449 36,000  Level Chicago Center
08:41PM 41.5469 -89.0931 270° West 401 461 36,000  Level Chicago Center
08:42PM 41.5475 -89.2444 270° West 407 468 36,000  Level Chicago Center
08:43PM 41.5469 -89.4219 270° West 403 464 36,000  Level Chicago Center
08:44PM 41.5475 -89.5492 270° West 380 437 36,000  Level Chicago Center
08:45PM 41.5469 -89.6811 270° West 363 418 36,000  Level Chicago Center
08:46PM 41.5456 -89.8108 269° West 356 410 36,000  Level Chicago Center
08:47PM 41.5444 -89.9322 269° West 338 389 36,000  Level Chicago Center
08:48PM 41.5447 -90.0700 270° West 317 365 36,000  Level Chicago Center
08:49PM 41.5439 -90.1958 270° West 333 383 36,000  Level Chicago Center
08:50PM 41.5425 -90.3303 269° West 356 410 36,000  Level Chicago Center
08:51PM 41.5400 -90.4700 269° West 370 426 36,000  Level Chicago Center
08:52PM 41.5386 -90.6172 269° West 381 438 36,000  Level Chicago Center
08:53PM 41.5350 -90.7692 268° West 401 461 36,000  Level Chicago Center
08:54PM 41.5325 -90.9486 269° West 406 467 36,000  Level Chicago Center
08:55PM 41.5292 -91.0925 268° West 390 449 36,000  Level Chicago Center
08:56PM 41.5272 -91.2261 269° West 365 420 36,000  Level Chicago Center
08:57PM 41.5244 -91.3575 268° West 359 413 36,000  Level Chicago Center
08:58PM 41.5214 -91.4942 268° West 369 425 36,000  Level Chicago Center
08:59PM 41.5181 -91.6639 269° West 383 441 36,000  Level Chicago Center
09:00PM 41.5128 -91.8014 267° West 379 436 36,000  Level Chicago Center
09:01PM 41.5086 -91.9358 268° West 370 426 36,000  Level Chicago Center
09:02PM 41.5044 -92.0661 268° West 360 414 36,000  Level Chicago Center
09:03PM 41.4983 -92.1953 266° West 355 409 36,000  Level Chicago Center
09:04PM 41.4947 -92.3281 268° West 356 410 36,000  Level Chicago Center
09:05PM 41.4892 -92.4628 267° West 331 381 36,000  Level Chicago Center
09:06PM 41.4842 -92.5819 267° West 325 374 36,000  Level Chicago Center
09:07PM 41.4811 -92.6803 268° West 326 375 36,000  Level Minneapolis Center
09:08PM 41.4753 -92.8028 266° West 330 380 36,000  Level Minneapolis Center
09:09PM 41.4700 -92.9283 267° West 337 388 36,000  Level Minneapolis Center
09:10PM 41.4647 -93.0569 267° West 346 398 36,000  Level Minneapolis Center
09:11PM 41.4572 -93.2161 266° West 356 410 36,000  Level Minneapolis Center
09:12PM 41.4511 -93.3511 267° West 365 420 36,000  Level Minneapolis Center
09:13PM 41.4447 -93.4858 266° West 368 423 36,000  Level Minneapolis Center
09:14PM 41.4392 -93.6225 267° West 370 426 36,000  Level Minneapolis Center
09:15PM 41.4519 -93.7694 277° West 396 456 36,000  Level Minneapolis Center
09:16PM 41.4703 -93.9169 279° West 405 466 36,000  Level Minneapolis Center
09:17PM 41.4906 -94.0958 279° West 409 471 36,000  Level Minneapolis Center
09:19PM 41.5089 -94.2603 279° West 411 473 36,000  Level Minneapolis Center
09:20PM 41.5269 -94.4111 279° West 411 473 36,000  Level Minneapolis Center
09:21PM 41.5436 -94.5633 278° West 414 476 36,000  Level Minneapolis Center
09:22PM 41.5558 -94.6842 278° West 413 475 36,000  Level Minneapolis Center
09:23PM 41.5767 -94.8639 279° West 410 472 36,000  Level Minneapolis Center
09:24PM 41.5919 -95.0131 278° West 408 470 36,000  Level Minneapolis Center
09:25PM 41.6108 -95.1933 278° West 409 471 36,000  Level Minneapolis Center
09:26PM 41.6256 -95.3431 278° West 407 468 36,000  Level Minneapolis Center
09:27PM 41.6422 -95.4919 279° West 407 468 36,000  Level Minneapolis Center
09:28PM 41.6564 -95.6489 277° West 407 468 36,000  Level Minneapolis Center
09:29PM 41.6708 -95.7897 278° West 406 467 36,000  Level Minneapolis Center
09:30PM 41.6858 -95.9386 278° West 407 468 36,000  Level Minneapolis Center
09:31PM 41.7033 -96.1169 278° West 409 471 36,000  Level Minneapolis Center
09:32PM 41.7178 -96.2675 277° West 412 474 36,000  Level Minneapolis Center
09:33PM 41.7319 -96.4178 277° West 410 472 36,000  Level Minneapolis Center
09:34PM 41.7456 -96.5667 277° West 405 466 36,000  Level Minneapolis Center
09:35PM 41.7592 -96.7178 277° West 409 471 36,000  Level Minneapolis Center
09:36PM 41.7753 -96.8969 277° West 406 467 36,000  Level Minneapolis Center
09:37PM 41.7878 -97.0447 277° West 403 464 36,000  Level Minneapolis Center
09:38PM 41.8006 -97.1856 277° West 387 445 36,000  Level Minneapolis Center
09:39PM 41.8128 -97.3258 277° West 381 438 36,000  Level Minneapolis Center
09:40PM 41.8253 -97.4672 277° West 382 440 36,000  Level Minneapolis Center
09:41PM 41.8361 -97.6144 276° West 392 451 36,000  Level Minneapolis Center
09:42PM 41.8497 -97.7664 277° West 406 467 36,000  Level Minneapolis Center
09:43PM 41.8642 -97.9483 276° West 410 472 36,000  Level Minneapolis Center
09:44PM 41.8761 -98.0944 276° West 400 460 36,000  Level Minneapolis Center
09:45PM 41.8864 -98.2236 276° West 390 449 36,000  Level Minneapolis Center
09:46PM 41.8997 -98.3919 276° West 381 438 36,000  Level Minneapolis Center
09:47PM 41.8892 -98.5336 264° West 388 447 36,000  Level Minneapolis Center
09:48PM 41.8669 -98.6811 259° West 400 460 36,000  Level Minneapolis Center
09:49PM 41.8433 -98.8286 258° West 404 465 36,000  Level Minneapolis Center
09:50PM 41.8203 -98.9781 258° West 410 472 36,000  Level Minneapolis Center
09:52PM 41.7969 -99.1231 258° West 404 465 36,000  Level Minneapolis Center
09:52PM 41.7736 -99.2631 257° West 388 447 36,000  Level Denver Center
09:54PM 41.7517 -99.4022 258° West 385 443 36,000  Level Denver Center
09:55PM 41.7292 -99.5389 258° West 379 436 36,000  Level Denver Center
09:56PM 41.7025 -99.7078 258° West 384 442 36,000  Level Denver Center
09:57PM 41.6761 -99.8586 257° West 395 455 36,000  Level Denver Center
09:58PM 41.6528 -100.0031 258° West 409 471 36,000  Level Denver Center
09:59PM 41.6258 -100.1661 258° West 408 470 36,000  Level Denver Center
10:00PM 41.6036 -100.2967 257° West 386 444 36,000  Level Denver Center
10:01PM 41.5764 -100.4475 256° West 378 435 36,000  Level Denver Center
10:02PM 41.5547 -100.5778 258° West 378 435 36,000  Level Denver Center
10:03PM 41.5269 -100.7311 256° West 381 438 36,000  Level Denver Center
10:04PM 41.4897 -100.8575 249° West 385 443 36,000  Level Denver Center
10:05PM 41.4439 -101.0075 248° West 391 450 36,000  Level Denver Center
10:06PM 41.4022 -101.1328 246° West 390 449 36,000  Level Denver Center
10:07PM 41.3492 -101.2822 245° Southwest 398 458 36,000  Level Denver Center
10:08PM 41.3047 -101.4117 245° Southwest 402 463 36,000 -540 Level Denver Center
10:09PM 41.2586 -101.5417 245° Southwest 406 467 34,900 -1,020 Descending Denver Center
10:10PM 41.2067 -101.6917 245° Southwest 404 465 34,000 -480 Descending Denver Center
10:11PM 41.1611 -101.8217 245° Southwest 406 467 34,000  Level Denver Center
10:12PM 41.1075 -101.9747 245° Southwest 410 472 34,000  Level Denver Center
10:13PM 41.0603 -102.1092 245° Southwest 418 481 34,000  Level Denver Center
10:14PM 41.0033 -102.2647 244° Southwest 420 483 34,000  Level Denver Center
10:15PM 40.9542 -102.3972 244° Southwest 419 482 34,000  Level Denver Center
10:16PM 40.8983 -102.5503 244° Southwest 417 480 34,000  Level Denver Center
10:17PM 40.8519 -102.6808 245° Southwest 412 474 34,000  Level Denver Center
10:18PM 40.7956 -102.8308 244° Southwest 409 471 34,000  Level Denver Center
10:19PM 40.7483 -102.9578 244° Southwest 403 464 34,000  Level Denver Center
10:20PM 40.7000 -103.0897 244° Southwest 401 461 34,000  Level Denver Center
10:21PM 40.6506 -103.2233 244° Southwest 403 464 34,000 -540 Level Denver Center
10:22PM 40.5986 -103.3617 244° Southwest 415 478 33,000 -1,920 Descending Denver Center
10:23PM 40.5403 -103.5183 244° Southwest 404 465 30,100 -2,460 Descending Denver Center
10:24PM 40.4919 -103.6486 244° Southwest 394 453 28,000 -2,100 Descending Denver Center
10:26PM 40.4433 -103.7786 244° Southwest 395 455 25,800 -2,220 Descending Denver Center
10:27PM 40.3972 -103.9014 244° Southwest 367 422 23,500 -2,040 Descending Denver Center
10:28PM 40.3511 -104.0111 241° Southwest 345 397 21,700 -1,980 Descending Denver Center
10:29PM 40.2681 -104.1011 220° Southwest 358 412 19,500 -2,160 Descending Denver Center
10:30PM 40.1942 -104.1803 219° Southwest 346 398 17,300 -2,040 Descending Denver Center
10:31PM 40.1319 -104.2664 227° Southwest 323 372 15,400 -1,740 Descending Denver Center
10:32PM 40.0736 -104.3533 229° Southwest 292 336 13,800 -1,440 Descending Denver Center
10:32PM 40.0333 -104.4000 222° Southwest 273 314 13,000 -720 Descending Denver TRACON
10:33PM 39.9833 -104.4833 232° Southwest 243 280 12,600 -840 Descending Denver TRACON
10:34PM 39.9500 -104.5500 237° Southwest 254 292 11,400 -900 Descending Denver TRACON
10:35PM 39.9500 -104.6167 270° West 226 260 11,000 -300 Descending Denver TRACON
10:36PM 39.9469 -104.6569 264° West 227 261 11,000  Level Denver Center
10:37PM 39.9508 -104.7483 273° West 237 273 11,000 -300 Level Denver Center
10:38PM 39.9553 -104.8314 274° West 232 267 10,500 -540 Descending Denver Center
10:39PM 39.9353 -104.9061 251° West 235 270 9,900 -720 Descending Denver Center
10:40PM 39.8719 -104.9042 179° South 228 262 9,100 -1,320 Descending Denver Center
10:41PM 39.8422 -104.8533 127° Southeast 202 232 7,200 -1,260 Descending Denver Center
10:42PM 39.8414 -104.7975 91° East 162 186 6,600 -780 Descending Denver Center
10:43PM 39.8408 -104.7506 91° East 135 155 5,700 -660 Descending Denver Center
10:44PM 39.8414 -104.7053 89° East 132 152 5,300 -420 Descending Denver Center
10:46PM 39.8500 -104.6667 North  Level FlightAware Approximate
10:53PM 39.8617 -104.6732 North  Level Estimated
10:54PM 39.8617 -104.6732 North  Level Estimated
10:55PM 39.8617 -104.6732 North  Level Estimated